sensor_id;sensor_type;location;lat;lon;timestamp;pressure;altitude;pressure_sealevel;temperature;humidity
73457;BME280;61691;53.072;6.582;2022-12-29T00:00:04;99748.38;;;10.21;81.93
73457;BME280;61691;53.072;6.582;2022-12-29T00:02:32;99746.38;;;10.23;81.78
73457;BME280;61691;53.072;6.582;2022-12-29T00:04:59;99750.34;;;10.19;82.04
73457;BME280;61691;53.072;6.582;2022-12-29T00:07:25;99753.03;;;10.27;82.49
73457;BME280;61691;53.072;6.582;2022-12-29T00:09:52;99739.09;;;10.25;82.51
73457;BME280;61691;53.072;6.582;2022-12-29T00:12:19;99733.66;;;10.27;82.28
73457;BME280;61691;53.072;6.582;2022-12-29T00:14:46;99730.16;;;10.26;82.22
73457;BME280;61691;53.072;6.582;2022-12-29T00:17:32;99746.41;;;10.31;82.31
73457;BME280;61691;53.072;6.582;2022-12-29T00:19:59;99695.22;;;9.89;82.65
73457;BME280;61691;53.072;6.582;2022-12-29T00:22:44;99726.94;;;10.15;82.30
73457;BME280;61691;53.072;6.582;2022-12-29T00:25:29;99711.34;;;10.03;82.65
73457;BME280;61691;53.072;6.582;2022-12-29T00:28:15;99713.88;;;10.13;82.09
73457;BME280;61691;53.072;6.582;2022-12-29T00:31:01;99739.09;;;10.25;82.62
73457;BME280;61691;53.072;6.582;2022-12-29T00:34:09;99733.81;;;10.25;82.51
73457;BME280;61691;53.072;6.582;2022-12-29T00:36:55;99716.66;;;10.12;82.99
73457;BME280;61691;53.072;6.582;2022-12-29T00:39:22;99730.66;;;10.22;82.68
73457;BME280;61691;53.072;6.582;2022-12-29T00:42:09;99663.44;;;9.89;82.85
73457;BME280;61691;53.072;6.582;2022-12-29T00:44:54;99713.97;;;10.29;82.43
73457;BME280;61691;53.072;6.582;2022-12-29T00:47:21;99707.66;;;10.22;82.67
73457;BME280;61691;53.072;6.582;2022-12-29T00:49:47;99725.56;;;10.36;82.34
73457;BME280;61691;53.072;6.582;2022-12-29T00:52:14;99704.38;;;10.36;82.60
73457;BME280;61691;53.072;6.582;2022-12-29T00:54:42;99699.56;;;10.32;82.37
73457;BME280;61691;53.072;6.582;2022-12-29T00:57:11;99703.75;;;10.42;82.27
73457;BME280;61691;53.072;6.582;2022-12-29T00:59:40;99686.84;;;10.35;81.92
73457;BME280;61691;53.072;6.582;2022-12-29T01:02:08;99705.22;;;10.45;82.05
73457;BME280;61691;53.072;6.582;2022-12-29T01:04:35;99691.78;;;10.38;82.31
73457;BME280;61691;53.072;6.582;2022-12-29T01:07:02;99697.59;;;10.42;82.43
73457;BME280;61691;53.072;6.582;2022-12-29T01:09:29;99655.00;;;10.19;82.40
73457;BME280;61691;53.072;6.582;2022-12-29T01:12:15;99688.69;;;10.43;82.13
73457;BME280;61691;53.072;6.582;2022-12-29T01:14:43;99684.34;;;10.42;81.92
73457;BME280;61691;53.072;6.582;2022-12-29T01:17:10;99687.84;;;10.42;81.57
73457;BME280;61691;53.072;6.582;2022-12-29T01:19:37;99696.78;;;10.41;81.98
73457;BME280;61691;53.072;6.582;2022-12-29T01:22:03;99691.50;;;10.50;81.80
73457;BME280;61691;53.072;6.582;2022-12-29T01:24:30;99695.81;;;10.51;82.25
73457;BME280;61691;53.072;6.582;2022-12-29T01:26:57;99681.22;;;10.46;81.75
73457;BME280;61691;53.072;6.582;2022-12-29T01:29:23;99653.06;;;10.37;81.78
73457;BME280;61691;53.072;6.582;2022-12-29T01:31:50;99661.66;;;10.39;81.57
73457;BME280;61691;53.072;6.582;2022-12-29T01:34:17;99675.44;;;10.51;81.57
73457;BME280;61691;53.072;6.582;2022-12-29T01:36:44;99669.66;;;10.56;81.36
73457;BME280;61691;53.072;6.582;2022-12-29T01:39:11;99670.63;;;10.55;81.99
73457;BME280;61691;53.072;6.582;2022-12-29T01:41:38;99646.47;;;10.50;81.74
73457;BME280;61691;53.072;6.582;2022-12-29T01:47:08;99616.59;;;10.31;81.48
73457;BME280;61691;53.072;6.582;2022-12-29T01:49:35;99642.47;;;10.45;82.11
73457;BME280;61691;53.072;6.582;2022-12-29T01:52:05;99649.44;;;10.55;81.96
73457;BME280;61691;53.072;6.582;2022-12-29T01:54:39;99620.94;;;10.40;81.32
73457;BME280;61691;53.072;6.582;2022-12-29T01:57:11;99636.84;;;10.48;81.84
73457;BME280;61691;53.072;6.582;2022-12-29T01:59:53;99605.69;;;10.26;81.42
73457;BME280;61691;53.072;6.582;2022-12-29T02:02:22;99642.00;;;10.50;81.74
73457;BME280;61691;53.072;6.582;2022-12-29T02:04:51;99636.03;;;10.48;81.33
73457;BME280;61691;53.072;6.582;2022-12-29T02:07:22;99641.84;;;10.52;81.48
73457;BME280;61691;53.072;6.582;2022-12-29T02:09:51;99609.03;;;10.44;81.16
73457;BME280;61691;53.072;6.582;2022-12-29T02:12:20;99586.81;;;10.21;81.19
73457;BME280;61691;53.072;6.582;2022-12-29T02:14:48;99616.31;;;10.51;81.02
73457;BME280;61691;53.072;6.582;2022-12-29T02:17:45;99593.13;;;10.36;81.33
73457;BME280;61691;53.072;6.582;2022-12-29T02:26:27;99613.00;;;10.57;81.19
73457;BME280;61691;53.072;6.582;2022-12-29T02:32:06;99622.28;;;10.61;81.24
73457;BME280;61691;53.072;6.582;2022-12-29T02:34:57;99621.44;;;10.60;81.26
73457;BME280;61691;53.072;6.582;2022-12-29T02:45:20;99565.63;;;10.29;81.04
73457;BME280;61691;53.072;6.582;2022-12-29T02:48:13;99569.09;;;10.38;81.47
73457;BME280;61691;53.072;6.582;2022-12-29T02:51:25;99612.69;;;10.52;81.33
73457;BME280;61691;53.072;6.582;2022-12-29T02:53:52;99546.75;;;10.24;81.43
73457;BME280;61691;53.072;6.582;2022-12-29T02:56:39;99477.34;;;9.88;81.10
73457;BME280;61691;53.072;6.582;2022-12-29T02:59:06;99575.22;;;10.38;81.37
73457;BME280;61691;53.072;6.582;2022-12-29T03:01:59;99596.78;;;10.52;81.15
73457;BME280;61691;53.072;6.582;2022-12-29T03:11:02;99627.75;;;10.51;81.34
73457;BME280;61691;53.072;6.582;2022-12-29T03:16:24;99618.00;;;10.52;81.19
73457;BME280;61691;53.072;6.582;2022-12-29T03:23:49;99591.78;;;10.40;81.59
73457;BME280;61691;53.072;6.582;2022-12-29T03:26:18;99584.81;;;10.31;81.70
73457;BME280;61691;53.072;6.582;2022-12-29T03:28:50;99581.88;;;10.42;81.58
73457;BME280;61691;53.072;6.582;2022-12-29T03:31:19;99606.03;;;10.39;81.17
73457;BME280;61691;53.072;6.582;2022-12-29T03:33:48;99602.72;;;10.45;81.36
73457;BME280;61691;53.072;6.582;2022-12-29T03:36:30;99580.53;;;10.38;81.27
73457;BME280;61691;53.072;6.582;2022-12-29T03:39:08;99588.84;;;10.43;81.21
73457;BME280;61691;53.072;6.582;2022-12-29T03:41:36;99572.25;;;10.33;81.47
73457;BME280;61691;53.072;6.582;2022-12-29T03:44:05;99597.41;;;10.45;81.48
73457;BME280;61691;53.072;6.582;2022-12-29T03:46:32;99570.59;;;10.32;81.27
73457;BME280;61691;53.072;6.582;2022-12-29T03:48:59;99579.22;;;10.34;81.31
73457;BME280;61691;53.072;6.582;2022-12-29T03:51:26;99588.47;;;10.38;80.99
73457;BME280;61691;53.072;6.582;2022-12-29T03:53:53;99575.56;;;10.35;80.90
73457;BME280;61691;53.072;6.582;2022-12-29T03:56:20;99567.28;;;10.30;81.05
73457;BME280;61691;53.072;6.582;2022-12-29T03:58:46;99576.56;;;10.34;80.97
73457;BME280;61691;53.072;6.582;2022-12-29T04:01:13;99587.84;;;10.36;80.79
73457;BME280;61691;53.072;6.582;2022-12-29T04:03:40;99605.03;;;10.40;80.30
73457;BME280;61691;53.072;6.582;2022-12-29T04:06:07;99555.81;;;10.14;80.52
73457;BME280;61691;53.072;6.582;2022-12-29T04:08:34;99594.44;;;10.32;80.26
73457;BME280;61691;53.072;6.582;2022-12-29T04:11:00;99515.22;;;9.89;80.69
73457;BME280;61691;53.072;6.582;2022-12-29T04:13:27;99564.28;;;10.25;80.29
73457;BME280;61691;53.072;6.582;2022-12-29T04:15:54;99588.16;;;10.33;80.50
73457;BME280;61691;53.072;6.582;2022-12-29T04:18:21;99579.53;;;10.31;80.18
73457;BME280;61691;53.072;6.582;2022-12-29T04:20:47;99590.13;;;10.31;80.15
73457;BME280;61691;53.072;6.582;2022-12-29T04:23:31;99597.75;;;10.34;80.49
73457;BME280;61691;53.072;6.582;2022-12-29T04:25:58;99612.84;;;10.42;79.92
73457;BME280;61691;53.072;6.582;2022-12-29T04:28:26;99594.25;;;10.26;79.58
73457;BME280;61691;53.072;6.582;2022-12-29T04:30:53;99575.81;;;10.16;79.57
73457;BME280;61691;53.072;6.582;2022-12-29T04:33:20;99606.19;;;10.38;79.50
73457;BME280;61691;53.072;6.582;2022-12-29T04:35:47;99605.69;;;10.34;79.54
73457;BME280;61691;53.072;6.582;2022-12-29T04:38:15;99615.31;;;10.35;79.47
73457;BME280;61691;53.072;6.582;2022-12-29T04:40:44;99575.81;;;10.08;79.46
73457;BME280;61691;53.072;6.582;2022-12-29T04:43:11;99597.75;;;10.26;78.78
73457;BME280;61691;53.072;6.582;2022-12-29T04:45:42;99618.78;;;10.36;79.19
73457;BME280;61691;53.072;6.582;2022-12-29T04:48:09;99631.53;;;10.40;79.21
73457;BME280;61691;53.072;6.582;2022-12-29T04:50:36;99626.22;;;10.40;78.74
73457;BME280;61691;53.072;6.582;2022-12-29T04:53:03;99642.81;;;10.42;78.91
73457;BME280;61691;53.072;6.582;2022-12-29T04:55:30;99620.91;;;10.24;78.76
73457;BME280;61691;53.072;6.582;2022-12-29T04:57:57;99637.47;;;10.34;78.95
73457;BME280;61691;53.072;6.582;2022-12-29T05:00:23;99628.72;;;10.34;78.55
73457;BME280;61691;53.072;6.582;2022-12-29T05:02:50;99602.66;;;10.13;78.97
73457;BME280;61691;53.072;6.582;2022-12-29T05:05:17;99623.38;;;10.26;78.30
73457;BME280;61691;53.072;6.582;2022-12-29T05:07:44;99618.06;;;10.18;78.32
73457;BME280;61691;53.072;6.582;2022-12-29T05:10:11;99584.03;;;9.89;78.67
73457;BME280;61691;53.072;6.582;2022-12-29T05:12:38;99606.22;;;9.96;78.60
73457;BME280;61691;53.072;6.582;2022-12-29T05:15:06;99628.13;;;10.06;78.86
73457;BME280;61691;53.072;6.582;2022-12-29T05:17:33;99609.38;;;9.91;78.51
73457;BME280;61691;53.072;6.582;2022-12-29T05:20:00;99559.44;;;9.54;78.86
73457;BME280;61691;53.072;6.582;2022-12-29T05:22:27;99620.91;;;9.82;78.53
73457;BME280;61691;53.072;6.582;2022-12-29T05:24:53;99613.13;;;9.81;78.49
73457;BME280;61691;53.072;6.582;2022-12-29T05:27:20;99610.44;;;9.73;78.87
73457;BME280;61691;53.072;6.582;2022-12-29T05:29:47;99600.19;;;9.69;78.37
73457;BME280;61691;53.072;6.582;2022-12-29T05:32:14;99621.03;;;9.73;78.61
73457;BME280;61691;53.072;6.582;2022-12-29T05:34:40;99600.94;;;9.54;78.85
73457;BME280;61691;53.072;6.582;2022-12-29T05:37:07;99633.91;;;9.67;78.85
73457;BME280;61691;53.072;6.582;2022-12-29T05:39:34;99630.88;;;9.62;78.62
73457;BME280;61691;53.072;6.582;2022-12-29T05:42:01;99629.56;;;9.58;78.83
73457;BME280;61691;53.072;6.582;2022-12-29T05:44:27;99637.19;;;9.61;78.73
73457;BME280;61691;53.072;6.582;2022-12-29T05:46:54;99630.19;;;9.52;78.64
73457;BME280;61691;53.072;6.582;2022-12-29T05:49:21;99615.56;;;9.40;78.95
73457;BME280;61691;53.072;6.582;2022-12-29T05:51:48;99621.28;;;9.53;78.86
73457;BME280;61691;53.072;6.582;2022-12-29T05:54:14;99627.69;;;9.51;78.94
73457;BME280;61691;53.072;6.582;2022-12-29T05:56:41;99643.03;;;9.47;79.13
73457;BME280;61691;53.072;6.582;2022-12-29T05:59:08;99643.03;;;9.47;79.13
73457;BME280;61691;53.072;6.582;2022-12-29T06:01:34;99629.56;;;9.32;78.89
73457;BME280;61691;53.072;6.582;2022-12-29T06:04:01;99632.47;;;9.47;79.32
73457;BME280;61691;53.072;6.582;2022-12-29T06:06:28;99643.78;;;9.57;79.16
73457;BME280;61691;53.072;6.582;2022-12-29T06:08:55;99641.47;;;9.62;78.78
73457;BME280;61691;53.072;6.582;2022-12-29T06:11:22;99639.63;;;9.55;78.88
73457;BME280;61691;53.072;6.582;2022-12-29T06:13:48;99649.69;;;9.51;79.02
73457;BME280;61691;53.072;6.582;2022-12-29T06:16:15;99649.16;;;9.48;78.84
73457;BME280;61691;53.072;6.582;2022-12-29T06:18:43;99626.78;;;9.34;78.85
73457;BME280;61691;53.072;6.582;2022-12-29T06:21:09;99621.19;;;9.37;78.36
73457;BME280;61691;53.072;6.582;2022-12-29T06:23:36;99651.34;;;9.52;78.79
73457;BME280;61691;53.072;6.582;2022-12-29T06:26:03;99658.50;;;9.60;78.55
73457;BME280;61691;53.072;6.582;2022-12-29T06:28:30;99639.59;;;9.47;78.55
73457;BME280;61691;53.072;6.582;2022-12-29T06:30:56;99602.41;;;9.22;78.54
73457;BME280;61691;53.072;6.582;2022-12-29T06:33:23;99660.31;;;9.59;78.41
73457;BME280;61691;53.072;6.582;2022-12-29T06:35:50;99624.81;;;9.36;78.38
73457;BME280;61691;53.072;6.582;2022-12-29T06:38:17;99655.00;;;9.51;78.13
73457;BME280;61691;53.072;6.582;2022-12-29T06:40:44;99664.88;;;9.49;78.07
73457;BME280;61691;53.072;6.582;2022-12-29T06:43:12;99644.31;;;9.35;77.95
73457;BME280;61691;53.072;6.582;2022-12-29T06:45:39;99680.91;;;9.48;77.68
73457;BME280;61691;53.072;6.582;2022-12-29T06:48:06;99675.41;;;9.41;77.98
73457;BME280;61691;53.072;6.582;2022-12-29T06:50:33;99638.59;;;9.22;77.63
73457;BME280;61691;53.072;6.582;2022-12-29T06:53:00;99674.06;;;9.37;77.51
73457;BME280;61691;53.072;6.582;2022-12-29T06:55:27;99648.63;;;9.36;77.54
73457;BME280;61691;53.072;6.582;2022-12-29T06:57:58;99662.75;;;9.27;77.44
73457;BME280;61691;53.072;6.582;2022-12-29T07:00:25;99570.69;;;8.71;77.34
73457;BME280;61691;53.072;6.582;2022-12-29T07:02:54;99663.50;;;9.37;77.62
73457;BME280;61691;53.072;6.582;2022-12-29T07:05:22;99684.66;;;9.37;77.47
73457;BME280;61691;53.072;6.582;2022-12-29T07:07:48;99664.63;;;9.35;77.21
73457;BME280;61691;53.072;6.582;2022-12-29T07:10:15;99669.78;;;9.36;77.44
73457;BME280;61691;53.072;6.582;2022-12-29T07:12:42;99672.13;;;9.39;77.52
73457;BME280;61691;53.072;6.582;2022-12-29T07:15:09;99674.63;;;9.49;76.94
73457;BME280;61691;53.072;6.582;2022-12-29T07:17:36;99678.44;;;9.46;76.88
73457;BME280;61691;53.072;6.582;2022-12-29T07:20:03;99639.66;;;9.29;76.80
73457;BME280;61691;53.072;6.582;2022-12-29T07:22:30;99683.09;;;9.52;76.76
73457;BME280;61691;53.072;6.582;2022-12-29T07:24:57;99672.78;;;9.41;76.74
73457;BME280;61691;53.072;6.582;2022-12-29T07:27:23;99701.69;;;9.60;77.04
73457;BME280;61691;53.072;6.582;2022-12-29T07:29:50;99656.59;;;9.44;76.29
73457;BME280;61691;53.072;6.582;2022-12-29T07:32:17;99689.94;;;9.63;76.90
73457;BME280;61691;53.072;6.582;2022-12-29T07:34:44;99646.78;;;9.37;77.03
73457;BME280;61691;53.072;6.582;2022-12-29T07:37:16;99683.81;;;9.62;76.24
73457;BME280;61691;53.072;6.582;2022-12-29T07:39:43;99688.66;;;9.67;76.66
73457;BME280;61691;53.072;6.582;2022-12-29T07:42:10;99697.56;;;9.66;76.76
73457;BME280;61691;53.072;6.582;2022-12-29T07:44:37;99702.38;;;9.70;76.32
73457;BME280;61691;53.072;6.582;2022-12-29T07:47:04;99631.56;;;9.30;76.65
73457;BME280;61691;53.072;6.582;2022-12-29T07:49:30;99671.50;;;9.45;76.55
73457;BME280;61691;53.072;6.582;2022-12-29T08:13:22;99679.44;;;9.45;75.60
73457;BME280;61691;53.072;6.582;2022-12-29T08:15:49;99695.56;;;9.60;75.88
73457;BME280;61691;53.072;6.582;2022-12-29T08:18:16;99704.00;;;9.63;76.04
73457;BME280;61691;53.072;6.582;2022-12-29T08:20:43;99713.16;;;9.69;75.42
73457;BME280;61691;53.072;6.582;2022-12-29T08:23:09;99711.00;;;9.73;75.88
73457;BME280;61691;53.072;6.582;2022-12-29T08:25:36;99697.09;;;9.70;75.04
73457;BME280;61691;53.072;6.582;2022-12-29T08:28:03;99709.72;;;9.77;75.63
73457;BME280;61691;53.072;6.582;2022-12-29T08:30:30;99711.72;;;9.83;75.47
73457;BME280;61691;53.072;6.582;2022-12-29T08:32:57;99697.63;;;9.74;75.19
73457;BME280;61691;53.072;6.582;2022-12-29T08:35:23;99699.78;;;9.79;75.33
73457;BME280;61691;53.072;6.582;2022-12-29T08:37:50;99704.47;;;9.85;75.16
73457;BME280;61691;53.072;6.582;2022-12-29T08:40:17;99704.28;;;9.86;74.64
73457;BME280;61691;53.072;6.582;2022-12-29T08:42:44;99659.97;;;9.54;74.73
73457;BME280;61691;53.072;6.582;2022-12-29T08:45:10;99717.84;;;9.83;74.67
73457;BME280;61691;53.072;6.582;2022-12-29T08:47:38;99676.94;;;9.78;74.50
73457;BME280;61691;53.072;6.582;2022-12-29T08:50:05;99691.19;;;9.77;74.25
73457;BME280;61691;53.072;6.582;2022-12-29T08:52:32;99706.09;;;9.86;73.82
73457;BME280;61691;53.072;6.582;2022-12-29T08:54:59;99717.03;;;9.83;74.64
73457;BME280;61691;53.072;6.582;2022-12-29T08:57:25;99705.06;;;9.79;74.73
73457;BME280;61691;53.072;6.582;2022-12-29T08:59:52;99694.50;;;9.79;74.40
73457;BME280;61691;53.072;6.582;2022-12-29T09:02:19;99694.69;;;9.85;74.60
73457;BME280;61691;53.072;6.582;2022-12-29T09:04:50;99690.34;;;9.76;74.50
73457;BME280;61691;53.072;6.582;2022-12-29T09:07:17;99698.41;;;9.66;74.20
73457;BME280;61691;53.072;6.582;2022-12-29T09:09:44;99692.53;;;9.81;74.51
73457;BME280;61691;53.072;6.582;2022-12-29T09:12:10;99701.78;;;9.77;74.13
73457;BME280;61691;53.072;6.582;2022-12-29T09:14:37;99704.69;;;9.65;74.32
73457;BME280;61691;53.072;6.582;2022-12-29T09:17:04;99712.66;;;9.74;74.74
73457;BME280;61691;53.072;6.582;2022-12-29T09:19:50;99713.69;;;9.81;74.73
73457;BME280;61691;53.072;6.582;2022-12-29T09:22:16;99652.28;;;9.43;74.81
73457;BME280;61691;53.072;6.582;2022-12-29T09:24:43;99734.25;;;9.87;75.28
73457;BME280;61691;53.072;6.582;2022-12-29T09:27:10;99708.00;;;9.67;74.90
73457;BME280;61691;53.072;6.582;2022-12-29T09:29:37;99691.81;;;9.45;75.26
73457;BME280;61691;53.072;6.582;2022-12-29T09:32:03;99738.84;;;9.77;75.62
73457;BME280;61691;53.072;6.582;2022-12-29T09:34:33;99731.13;;;9.65;75.82
73457;BME280;61691;53.072;6.582;2022-12-29T09:37:00;99744.38;;;9.65;75.84
73457;BME280;61691;53.072;6.582;2022-12-29T09:39:27;99765.38;;;9.67;76.08
73457;BME280;61691;53.072;6.582;2022-12-29T09:42:08;99729.53;;;9.47;75.72
73457;BME280;61691;53.072;6.582;2022-12-29T09:45:06;99746.03;;;9.66;76.13
73457;BME280;61691;53.072;6.582;2022-12-29T09:47:34;99747.84;;;9.66;76.08
73457;BME280;61691;53.072;6.582;2022-12-29T09:50:06;99750.13;;;9.61;76.04
73457;BME280;61691;53.072;6.582;2022-12-29T09:53:15;99727.94;;;9.54;76.39
73457;BME280;61691;53.072;6.582;2022-12-29T09:56:00;99714.19;;;9.32;76.25
73457;BME280;61691;53.072;6.582;2022-12-29T09:59:17;99776.31;;;9.72;75.98
73457;BME280;61691;53.072;6.582;2022-12-29T10:01:51;99781.75;;;9.70;76.45
73457;BME280;61691;53.072;6.582;2022-12-29T10:04:20;99754.88;;;9.57;76.69
73457;BME280;61691;53.072;6.582;2022-12-29T10:20:42;99707.03;;;9.25;77.71
73457;BME280;61691;53.072;6.582;2022-12-29T10:23:15;99781.25;;;9.67;77.59
73457;BME280;61691;53.072;6.582;2022-12-29T10:25:46;99802.28;;;9.68;77.38
73457;BME280;61691;53.072;6.582;2022-12-29T10:29:10;99798.94;;;9.66;77.43
73457;BME280;61691;53.072;6.582;2022-12-29T10:31:33;99806.88;;;9.66;77.31
73457;BME280;61691;53.072;6.582;2022-12-29T10:34:07;99754.94;;;9.40;78.02
73457;BME280;61691;53.072;6.582;2022-12-29T10:36:47;99775.31;;;9.47;78.42
73457;BME280;61691;53.072;6.582;2022-12-29T10:42:15;99803.97;;;9.52;78.49
73457;BME280;61691;53.072;6.582;2022-12-29T10:44:47;99813.41;;;9.54;78.40
73457;BME280;61691;53.072;6.582;2022-12-29T10:47:18;99819.50;;;9.55;78.63
73457;BME280;61691;53.072;6.582;2022-12-29T10:49:48;99794.91;;;9.37;78.85
73457;BME280;61691;53.072;6.582;2022-12-29T10:52:17;99810.38;;;9.49;79.14
73457;BME280;61691;53.072;6.582;2022-12-29T10:55:02;99850.47;;;9.54;78.64
73457;BME280;61691;53.072;6.582;2022-12-29T10:57:39;99847.75;;;9.46;79.34
73457;BME280;61691;53.072;6.582;2022-12-29T11:00:23;99858.69;;;9.51;79.15
73457;BME280;61691;53.072;6.582;2022-12-29T11:06:02;99879.09;;;9.59;78.96
73457;BME280;61691;53.072;6.582;2022-12-29T11:08:38;99850.75;;;9.51;79.12
73457;BME280;61691;53.072;6.582;2022-12-29T11:11:09;99862.03;;;9.53;78.90
73457;BME280;61691;53.072;6.582;2022-12-29T11:13:57;99818.69;;;9.19;78.78
73457;BME280;61691;53.072;6.582;2022-12-29T11:16:33;99838.13;;;9.27;79.17
73457;BME280;61691;53.072;6.582;2022-12-29T11:19:01;99898.66;;;9.48;79.07
73457;BME280;61691;53.072;6.582;2022-12-29T11:21:37;99886.28;;;9.31;78.95
73457;BME280;61691;53.072;6.582;2022-12-29T11:24:43;99897.31;;;9.44;79.03
73457;BME280;61691;53.072;6.582;2022-12-29T11:27:24;99866.09;;;9.30;79.06
73457;BME280;61691;53.072;6.582;2022-12-29T11:29:52;99887.63;;;9.35;78.91
73457;BME280;61691;53.072;6.582;2022-12-29T11:32:28;99917.88;;;9.50;79.20
73457;BME280;61691;53.072;6.582;2022-12-29T11:34:58;99915.03;;;9.61;78.90
73457;BME280;61691;53.072;6.582;2022-12-29T11:37:31;99917.66;;;9.61;78.82
73457;BME280;61691;53.072;6.582;2022-12-29T11:40:15;99926.66;;;9.68;78.72
73457;BME280;61691;53.072;6.582;2022-12-29T11:42:55;99941.69;;;9.68;78.83
73457;BME280;61691;53.072;6.582;2022-12-29T11:45:28;99923.63;;;9.63;78.59
73457;BME280;61691;53.072;6.582;2022-12-29T11:48:06;99940.25;;;9.74;78.53
73457;BME280;61691;53.072;6.582;2022-12-29T11:50:37;99946.59;;;9.81;78.87
73457;BME280;61691;53.072;6.582;2022-12-29T11:53:24;99948.50;;;9.88;79.11
73457;BME280;61691;53.072;6.582;2022-12-29T11:56:05;99930.13;;;9.87;78.53
73457;BME280;61691;53.072;6.582;2022-12-29T11:58:35;99926.19;;;9.91;78.40
73457;BME280;61691;53.072;6.582;2022-12-29T12:01:20;99949.25;;;9.98;78.43
73457;BME280;61691;53.072;6.582;2022-12-29T12:04:03;99928.78;;;9.83;78.31
73457;BME280;61691;53.072;6.582;2022-12-29T12:06:35;99922.09;;;9.79;78.47
73457;BME280;61691;53.072;6.582;2022-12-29T12:09:18;99959.53;;;10.01;78.36
73457;BME280;61691;53.072;6.582;2022-12-29T12:11:45;99976.88;;;9.96;78.09
73457;BME280;61691;53.072;6.582;2022-12-29T12:14:34;99968.22;;;9.94;78.35
73457;BME280;61691;53.072;6.582;2022-12-29T12:17:10;99972.53;;;9.95;78.01
73457;BME280;61691;53.072;6.582;2022-12-29T12:19:42;99988.81;;;10.00;77.79
73457;BME280;61691;53.072;6.582;2022-12-29T12:22:17;99979.28;;;10.07;77.82
73457;BME280;61691;53.072;6.582;2022-12-29T12:24:53;99991.59;;;10.16;77.91
73457;BME280;61691;53.072;6.582;2022-12-29T12:27:32;99990.72;;;10.25;77.72
73457;BME280;61691;53.072;6.582;2022-12-29T12:30:27;100001.09;;;10.36;77.21
73457;BME280;61691;53.072;6.582;2022-12-29T12:33:04;99998.50;;;10.44;77.65
73457;BME280;61691;53.072;6.582;2022-12-29T12:35:44;99986.47;;;10.32;76.88
73457;BME280;61691;53.072;6.582;2022-12-29T12:38:38;99994.97;;;10.36;76.17
73457;BME280;61691;53.072;6.582;2022-12-29T12:41:13;100014.41;;;10.44;75.21
73457;BME280;61691;53.072;6.582;2022-12-29T12:52:08;100036.66;;;10.52;74.97
73457;BME280;61691;53.072;6.582;2022-12-29T12:58:11;100039.22;;;10.43;74.23
73457;BME280;61691;53.072;6.582;2022-12-29T13:04:03;100064.69;;;10.36;75.05
73457;BME280;61691;53.072;6.582;2022-12-29T13:17:53;100073.97;;;10.23;74.37
73457;BME280;61691;53.072;6.582;2022-12-29T13:23:35;100087.06;;;10.24;74.50
73457;BME280;61691;53.072;6.582;2022-12-29T13:26:39;100085.72;;;10.20;73.76
73457;BME280;61691;53.072;6.582;2022-12-29T13:29:20;100086.00;;;10.17;74.24
73457;BME280;61691;53.072;6.582;2022-12-29T13:32:15;100069.91;;;10.01;73.66
73457;BME280;61691;53.072;6.582;2022-12-29T13:37:31;100039.72;;;9.76;74.12
73457;BME280;61691;53.072;6.582;2022-12-29T13:40:19;100082.91;;;9.94;73.59
73457;BME280;61691;53.072;6.582;2022-12-29T13:42:48;100054.75;;;9.76;73.69
73457;BME280;61691;53.072;6.582;2022-12-29T13:45:18;100067.25;;;9.83;73.60
73457;BME280;61691;53.072;6.582;2022-12-29T13:48:00;100099.63;;;9.95;74.00
73457;BME280;61691;53.072;6.582;2022-12-29T13:50:32;100096.28;;;9.93;73.87
73457;BME280;61691;53.072;6.582;2022-12-29T14:01:37;100114.59;;;9.86;72.74
73457;BME280;61691;53.072;6.582;2022-12-29T14:04:13;100078.75;;;9.64;73.59
73457;BME280;61691;53.072;6.582;2022-12-29T14:06:40;100111.69;;;9.80;73.54
73457;BME280;61691;53.072;6.582;2022-12-29T14:09:34;100110.44;;;9.84;73.12
73457;BME280;61691;53.072;6.582;2022-12-29T14:12:35;100117.97;;;9.79;73.34
73457;BME280;61691;53.072;6.582;2022-12-29T14:17:30;100098.03;;;9.47;73.43
73457;BME280;61691;53.072;6.582;2022-12-29T14:19:57;100119.19;;;9.57;73.91
73457;BME280;61691;53.072;6.582;2022-12-29T14:22:26;100120.88;;;9.48;73.75
73457;BME280;61691;53.072;6.582;2022-12-29T14:24:59;100131.47;;;9.48;73.93
73457;BME280;61691;53.072;6.582;2022-12-29T14:29:56;100109.81;;;9.25;74.04
73457;BME280;61691;53.072;6.582;2022-12-29T14:34:56;100143.06;;;9.38;74.47
73457;BME280;61691;53.072;6.582;2022-12-29T14:40:23;100144.03;;;9.37;74.74
73457;BME280;61691;53.072;6.582;2022-12-29T14:42:53;100107.38;;;9.14;74.36
73457;BME280;61691;53.072;6.582;2022-12-29T14:47:49;100128.19;;;9.27;74.44
73457;BME280;61691;53.072;6.582;2022-12-29T14:53:00;100091.69;;;8.93;74.83
73457;BME280;61691;53.072;6.582;2022-12-29T14:55:55;100156.59;;;9.25;74.69
73457;BME280;61691;53.072;6.582;2022-12-29T14:58:30;100108.78;;;8.89;74.47
73457;BME280;61691;53.072;6.582;2022-12-29T15:00:58;100143.59;;;8.95;74.38
73457;BME280;61691;53.072;6.582;2022-12-29T15:03:32;100166.63;;;9.12;74.39
73457;BME280;61691;53.072;6.582;2022-12-29T15:06:08;100165.28;;;9.08;74.59
73457;BME280;61691;53.072;6.582;2022-12-29T15:09:03;100145.53;;;8.92;74.55
73457;BME280;61691;53.072;6.582;2022-12-29T15:13:59;100151.91;;;8.90;74.94
73457;BME280;61691;53.072;6.582;2022-12-29T15:16:33;100165.97;;;8.90;74.82
73457;BME280;61691;53.072;6.582;2022-12-29T15:19:03;100166.69;;;8.92;74.66
73457;BME280;61691;53.072;6.582;2022-12-29T15:21:34;100172.22;;;8.89;74.67
73457;BME280;61691;53.072;6.582;2022-12-29T15:24:05;100168.06;;;8.87;74.68
73457;BME280;61691;53.072;6.582;2022-12-29T15:26:46;100117.72;;;8.50;74.95
73457;BME280;61691;53.072;6.582;2022-12-29T15:29:46;100176.41;;;8.82;75.19
73457;BME280;61691;53.072;6.582;2022-12-29T15:32:19;100146.66;;;8.61;75.23
73457;BME280;61691;53.072;6.582;2022-12-29T15:34:51;100136.19;;;8.50;75.20
73457;BME280;61691;53.072;6.582;2022-12-29T15:37:28;100172.78;;;8.74;74.81
73457;BME280;61691;53.072;6.582;2022-12-29T15:39:58;100157.22;;;8.61;75.20
73457;BME280;61691;53.072;6.582;2022-12-29T15:42:39;100174.75;;;8.72;75.17
73457;BME280;61691;53.072;6.582;2022-12-29T15:45:14;100159.44;;;8.56;75.12